sensor_id;sensor_type;location;lat;lon;timestamp;P1;durP1;ratioP1;P2;durP2;ratioP2
38025;SDS011;23836;48.430;9.888;2022-08-01T00:04:49;5.97;;;2.13;;
38025;SDS011;23836;48.430;9.888;2022-08-01T00:09:39;3.20;;;1.67;;
38025;SDS011;23836;48.430;9.888;2022-08-01T00:14:30;4.28;;;1.70;;
38025;SDS011;23836;48.430;9.888;2022-08-01T00:19:20;7.20;;;1.92;;
38025;SDS011;23836;48.430;9.888;2022-08-01T00:24:11;4.00;;;1.70;;
38025;SDS011;23836;48.430;9.888;2022-08-01T00:29:01;4.20;;;1.77;;
38025;SDS011;23836;48.430;9.888;2022-08-01T00:33:51;3.75;;;1.90;;
38025;SDS011;23836;48.430;9.888;2022-08-01T00:38:42;4.05;;;1.48;;
38025;SDS011;23836;48.430;9.888;2022-08-01T00:43:32;3.70;;;1.88;;
38025;SDS011;23836;48.430;9.888;2022-08-01T00:48:23;2.42;;;1.90;;
38025;SDS011;23836;48.430;9.888;2022-08-01T00:53:13;3.88;;;2.00;;
38025;SDS011;23836;48.430;9.888;2022-08-01T00:58:04;2.97;;;1.77;;
38025;SDS011;23836;48.430;9.888;2022-08-01T01:02:55;2.13;;;1.70;;
38025;SDS011;23836;48.430;9.888;2022-08-01T01:28:27;2.95;;;2.10;;
38025;SDS011;23836;48.430;9.888;2022-08-01T01:32:57;4.57;;;1.98;;
38025;SDS011;23836;48.430;9.888;2022-08-01T01:37:53;2.47;;;1.80;;
38025;SDS011;23836;48.430;9.888;2022-08-01T01:43:03;4.30;;;1.48;;
38025;SDS011;23836;48.430;9.888;2022-08-01T01:47:58;4.00;;;1.90;;
38025;SDS011;23836;48.430;9.888;2022-08-01T01:52:50;2.50;;;1.65;;
38025;SDS011;23836;48.430;9.888;2022-08-01T01:57:42;4.45;;;1.90;;
38025;SDS011;23836;48.430;9.888;2022-08-01T02:02:36;2.78;;;1.90;;
38025;SDS011;23836;48.430;9.888;2022-08-01T02:07:27;4.13;;;1.83;;
38025;SDS011;23836;48.430;9.888;2022-08-01T02:12:18;3.05;;;1.65;;
38025;SDS011;23836;48.430;9.888;2022-08-01T02:17:12;2.22;;;1.65;;
38025;SDS011;23836;48.430;9.888;2022-08-01T02:22:10;2.55;;;1.90;;
38025;SDS011;23836;48.430;9.888;2022-08-01T02:27:11;3.13;;;1.95;;
38025;SDS011;23836;48.430;9.888;2022-08-01T02:32:06;4.47;;;1.92;;
38025;SDS011;23836;48.430;9.888;2022-08-01T02:37:03;5.93;;;1.92;;
38025;SDS011;23836;48.430;9.888;2022-08-01T02:41:55;3.15;;;2.30;;
38025;SDS011;23836;48.430;9.888;2022-08-01T02:46:51;2.97;;;2.17;;
38025;SDS011;23836;48.430;9.888;2022-08-01T02:51:52;2.67;;;2.13;;
38025;SDS011;23836;48.430;9.888;2022-08-01T02:56:46;4.50;;;2.90;;
38025;SDS011;23836;48.430;9.888;2022-08-01T03:01:38;4.32;;;2.55;;
38025;SDS011;23836;48.430;9.888;2022-08-01T03:06:29;3.58;;;2.05;;
38025;SDS011;23836;48.430;9.888;2022-08-01T03:11:21;7.25;;;2.35;;
38025;SDS011;23836;48.430;9.888;2022-08-01T03:16:14;3.88;;;2.08;;
38025;SDS011;23836;48.430;9.888;2022-08-01T03:21:06;3.63;;;2.25;;
38025;SDS011;23836;48.430;9.888;2022-08-01T03:25:59;4.20;;;2.35;;
38025;SDS011;23836;48.430;9.888;2022-08-01T03:30:51;5.78;;;2.00;;
38025;SDS011;23836;48.430;9.888;2022-08-01T03:35:45;3.40;;;2.35;;
38025;SDS011;23836;48.430;9.888;2022-08-01T03:40:39;2.65;;;2.10;;
38025;SDS011;23836;48.430;9.888;2022-08-01T03:45:36;3.55;;;2.38;;
38025;SDS011;23836;48.430;9.888;2022-08-01T03:50:30;4.67;;;2.27;;
38025;SDS011;23836;48.430;9.888;2022-08-01T03:55:23;3.45;;;2.40;;
38025;SDS011;23836;48.430;9.888;2022-08-01T04:00:15;4.47;;;2.30;;
38025;SDS011;23836;48.430;9.888;2022-08-01T04:05:08;4.85;;;2.30;;
38025;SDS011;23836;48.430;9.888;2022-08-01T04:09:59;2.85;;;2.47;;
38025;SDS011;23836;48.430;9.888;2022-08-01T04:14:50;3.60;;;2.03;;
38025;SDS011;23836;48.430;9.888;2022-08-01T04:19:41;3.80;;;2.60;;
38025;SDS011;23836;48.430;9.888;2022-08-01T04:24:33;7.88;;;2.50;;
38025;SDS011;23836;48.430;9.888;2022-08-01T04:29:25;2.72;;;2.33;;
38025;SDS011;23836;48.430;9.888;2022-08-01T04:34:19;5.45;;;2.33;;
38025;SDS011;23836;48.430;9.888;2022-08-01T04:39:11;2.83;;;1.92;;
38025;SDS011;23836;48.430;9.888;2022-08-01T04:44:03;4.85;;;2.60;;
38025;SDS011;23836;48.430;9.888;2022-08-01T04:48:54;4.57;;;1.98;;
38025;SDS011;23836;48.430;9.888;2022-08-01T04:53:46;5.47;;;2.40;;
38025;SDS011;23836;48.430;9.888;2022-08-01T04:58:36;5.10;;;2.90;;
38025;SDS011;23836;48.430;9.888;2022-08-01T05:03:27;4.07;;;1.98;;
38025;SDS011;23836;48.430;9.888;2022-08-01T05:08:17;5.22;;;2.58;;
38025;SDS011;23836;48.430;9.888;2022-08-01T05:13:08;9.98;;;3.05;;
38025;SDS011;23836;48.430;9.888;2022-08-01T05:17:59;4.13;;;2.55;;
38025;SDS011;23836;48.430;9.888;2022-08-01T05:22:49;4.72;;;2.30;;
38025;SDS011;23836;48.430;9.888;2022-08-01T05:27:40;5.20;;;2.60;;
38025;SDS011;23836;48.430;9.888;2022-08-01T05:32:30;2.72;;;2.35;;
38025;SDS011;23836;48.430;9.888;2022-08-01T05:37:22;4.30;;;2.55;;
38025;SDS011;23836;48.430;9.888;2022-08-01T05:42:13;4.22;;;2.30;;
38025;SDS011;23836;48.430;9.888;2022-08-01T05:47:03;2.85;;;1.90;;
38025;SDS011;23836;48.430;9.888;2022-08-01T05:51:54;5.75;;;1.90;;
38025;SDS011;23836;48.430;9.888;2022-08-01T05:56:45;5.22;;;2.30;;
38025;SDS011;23836;48.430;9.888;2022-08-01T06:01:35;3.05;;;1.77;;
38025;SDS011;23836;48.430;9.888;2022-08-01T06:06:26;3.13;;;2.08;;
38025;SDS011;23836;48.430;9.888;2022-08-01T06:11:17;8.52;;;1.80;;
38025;SDS011;23836;48.430;9.888;2022-08-01T06:16:07;2.95;;;1.95;;
38025;SDS011;23836;48.430;9.888;2022-08-01T06:20:58;3.60;;;1.80;;
38025;SDS011;23836;48.430;9.888;2022-08-01T06:25:51;3.28;;;1.63;;
38025;SDS011;23836;48.430;9.888;2022-08-01T06:30:43;2.05;;;1.67;;
38025;SDS011;23836;48.430;9.888;2022-08-01T06:35:33;3.70;;;1.80;;
38025;SDS011;23836;48.430;9.888;2022-08-01T06:40:24;4.18;;;2.20;;
38025;SDS011;23836;48.430;9.888;2022-08-01T06:45:14;2.03;;;1.63;;
38025;SDS011;23836;48.430;9.888;2022-08-01T06:50:06;2.08;;;1.40;;
38025;SDS011;23836;48.430;9.888;2022-08-01T06:54:58;1.73;;;1.42;;
38025;SDS011;23836;48.430;9.888;2022-08-01T06:59:49;1.42;;;1.17;;
38025;SDS011;23836;48.430;9.888;2022-08-01T07:04:39;2.25;;;1.40;;
38025;SDS011;23836;48.430;9.888;2022-08-01T07:09:30;3.10;;;1.17;;
38025;SDS011;23836;48.430;9.888;2022-08-01T07:14:21;2.05;;;1.60;;
38025;SDS011;23836;48.430;9.888;2022-08-01T07:19:11;2.35;;;1.55;;
38025;SDS011;23836;48.430;9.888;2022-08-01T07:24:02;4.15;;;1.38;;
38025;SDS011;23836;48.430;9.888;2022-08-01T07:28:53;5.47;;;1.42;;
38025;SDS011;23836;48.430;9.888;2022-08-01T07:33:43;2.97;;;1.40;;
38025;SDS011;23836;48.430;9.888;2022-08-01T07:38:34;3.83;;;1.43;;
38025;SDS011;23836;48.430;9.888;2022-08-01T07:43:24;2.53;;;1.83;;
38025;SDS011;23836;48.430;9.888;2022-08-01T07:48:14;6.03;;;1.50;;
38025;SDS011;23836;48.430;9.888;2022-08-01T07:53:05;1.90;;;1.08;;
38025;SDS011;23836;48.430;9.888;2022-08-01T07:57:55;3.25;;;1.05;;
38025;SDS011;23836;48.430;9.888;2022-08-01T08:02:46;1.53;;;1.20;;
38025;SDS011;23836;48.430;9.888;2022-08-01T08:07:36;1.33;;;0.90;;
38025;SDS011;23836;48.430;9.888;2022-08-01T08:12:27;2.08;;;1.10;;
38025;SDS011;23836;48.430;9.888;2022-08-01T08:17:18;2.33;;;1.30;;
38025;SDS011;23836;48.430;9.888;2022-08-01T08:22:09;3.38;;;1.25;;
38025;SDS011;23836;48.430;9.888;2022-08-01T08:27:00;2.15;;;0.90;;
38025;SDS011;23836;48.430;9.888;2022-08-01T08:31:52;1.10;;;0.90;;
38025;SDS011;23836;48.430;9.888;2022-08-01T08:36:47;1.80;;;1.17;;
38025;SDS011;23836;48.430;9.888;2022-08-01T08:41:38;2.03;;;1.17;;
38025;SDS011;23836;48.430;9.888;2022-08-01T08:46:29;3.40;;;1.17;;
38025;SDS011;23836;48.430;9.888;2022-08-01T08:51:23;1.85;;;0.80;;
38025;SDS011;23836;48.430;9.888;2022-08-01T08:56:17;1.10;;;1.00;;
38025;SDS011;23836;48.430;9.888;2022-08-01T09:01:09;1.67;;;1.13;;
38025;SDS011;23836;48.430;9.888;2022-08-01T09:06:00;1.60;;;1.13;;
38025;SDS011;23836;48.430;9.888;2022-08-01T09:10:50;1.77;;;1.00;;
38025;SDS011;23836;48.430;9.888;2022-08-01T09:15:42;3.08;;;0.82;;
38025;SDS011;23836;48.430;9.888;2022-08-01T09:20:34;2.83;;;1.05;;
38025;SDS011;23836;48.430;9.888;2022-08-01T09:25:25;2.08;;;0.80;;
38025;SDS011;23836;48.430;9.888;2022-08-01T09:30:23;1.30;;;1.15;;
38025;SDS011;23836;48.430;9.888;2022-08-01T09:35:26;2.85;;;1.10;;
38025;SDS011;23836;48.430;9.888;2022-08-01T09:40:19;5.22;;;1.38;;
38025;SDS011;23836;48.430;9.888;2022-08-01T09:45:10;3.67;;;1.10;;
38025;SDS011;23836;48.430;9.888;2022-08-01T09:50:20;4.05;;;1.35;;
38025;SDS011;23836;48.430;9.888;2022-08-01T09:55:10;3.53;;;1.27;;
38025;SDS011;23836;48.430;9.888;2022-08-01T10:00:01;2.08;;;1.05;;
38025;SDS011;23836;48.430;9.888;2022-08-01T10:04:53;1.83;;;1.30;;
38025;SDS011;23836;48.430;9.888;2022-08-01T10:09:45;1.80;;;1.23;;
38025;SDS011;23836;48.430;9.888;2022-08-01T10:14:37;2.50;;;1.20;;
38025;SDS011;23836;48.430;9.888;2022-08-01T10:19:30;1.58;;;1.10;;
38025;SDS011;23836;48.430;9.888;2022-08-01T10:24:23;1.92;;;1.17;;
38025;SDS011;23836;48.430;9.888;2022-08-01T10:29:15;2.25;;;1.10;;
38025;SDS011;23836;48.430;9.888;2022-08-01T10:34:08;2.78;;;1.02;;
38025;SDS011;23836;48.430;9.888;2022-08-01T10:39:00;1.83;;;1.27;;
38025;SDS011;23836;48.430;9.888;2022-08-01T10:43:51;5.32;;;2.53;;
38025;SDS011;23836;48.430;9.888;2022-08-01T10:48:54;2.22;;;1.10;;
38025;SDS011;23836;48.430;9.888;2022-08-01T10:53:51;2.22;;;0.95;;
38025;SDS011;23836;48.430;9.888;2022-08-01T10:58:44;1.83;;;1.00;;
38025;SDS011;23836;48.430;9.888;2022-08-01T11:03:37;2.25;;;1.15;;
38025;SDS011;23836;48.430;9.888;2022-08-01T11:08:27;2.17;;;0.73;;
38025;SDS011;23836;48.430;9.888;2022-08-01T11:13:31;1.20;;;0.88;;
38025;SDS011;23836;48.430;9.888;2022-08-01T11:18:50;1.27;;;0.93;;
38025;SDS011;23836;48.430;9.888;2022-08-01T11:23:50;2.85;;;1.40;;
38025;SDS011;23836;48.430;9.888;2022-08-01T11:28:43;1.70;;;1.10;;
38025;SDS011;23836;48.430;9.888;2022-08-01T11:38:31;2.13;;;1.15;;
38025;SDS011;23836;48.430;9.888;2022-08-01T11:43:24;4.13;;;1.50;;
38025;SDS011;23836;48.430;9.888;2022-08-01T11:48:24;4.25;;;1.30;;
38025;SDS011;23836;48.430;9.888;2022-08-01T11:53:15;2.63;;;1.50;;
38025;SDS011;23836;48.430;9.888;2022-08-01T11:58:07;2.58;;;1.70;;
38025;SDS011;23836;48.430;9.888;2022-08-01T12:03:02;2.08;;;1.30;;
38025;SDS011;23836;48.430;9.888;2022-08-01T12:07:54;2.47;;;1.40;;
38025;SDS011;23836;48.430;9.888;2022-08-01T12:17:45;6.68;;;1.67;;
38025;SDS011;23836;48.430;9.888;2022-08-01T12:22:38;6.43;;;2.35;;
38025;SDS011;23836;48.430;9.888;2022-08-01T12:27:30;2.45;;;1.52;;
38025;SDS011;23836;48.430;9.888;2022-08-01T12:32:28;3.95;;;1.88;;
38025;SDS011;23836;48.430;9.888;2022-08-01T12:37:21;8.15;;;2.30;;
38025;SDS011;23836;48.430;9.888;2022-08-01T12:42:13;3.90;;;1.75;;
38025;SDS011;23836;48.430;9.888;2022-08-01T12:47:08;2.55;;;1.30;;
38025;SDS011;23836;48.430;9.888;2022-08-01T12:52:01;3.40;;;1.48;;
38025;SDS011;23836;48.430;9.888;2022-08-01T12:56:52;2.88;;;1.33;;
38025;SDS011;23836;48.430;9.888;2022-08-01T13:01:47;1.50;;;1.30;;
38025;SDS011;23836;48.430;9.888;2022-08-01T13:06:38;2.33;;;1.40;;
38025;SDS011;23836;48.430;9.888;2022-08-01T13:11:29;3.55;;;1.42;;
38025;SDS011;23836;48.430;9.888;2022-08-01T13:16:21;3.00;;;1.80;;
38025;SDS011;23836;48.430;9.888;2022-08-01T13:21:14;3.47;;;1.80;;
38025;SDS011;23836;48.430;9.888;2022-08-01T13:26:06;2.78;;;1.98;;
38025;SDS011;23836;48.430;9.888;2022-08-01T13:31:03;2.92;;;2.17;;
38025;SDS011;23836;48.430;9.888;2022-08-01T13:35:58;8.25;;;2.13;;
38025;SDS011;23836;48.430;9.888;2022-08-01T13:40:48;6.47;;;2.00;;
38025;SDS011;23836;48.430;9.888;2022-08-01T13:45:47;2.53;;;1.70;;
38025;SDS011;23836;48.430;9.888;2022-08-01T13:50:39;2.63;;;1.80;;
38025;SDS011;23836;48.430;9.888;2022-08-01T13:55:31;5.60;;;2.00;;
38025;SDS011;23836;48.430;9.888;2022-08-01T14:00:22;5.63;;;1.95;;
38025;SDS011;23836;48.430;9.888;2022-08-01T14:05:14;3.65;;;1.95;;
38025;SDS011;23836;48.430;9.888;2022-08-01T14:10:06;5.65;;;2.08;;
38025;SDS011;23836;48.430;9.888;2022-08-01T14:14:58;4.97;;;2.08;;
38025;SDS011;23836;48.430;9.888;2022-08-01T14:19:51;3.95;;;1.85;;
38025;SDS011;23836;48.430;9.888;2022-08-01T14:24:43;3.05;;;1.73;;
38025;SDS011;23836;48.430;9.888;2022-08-01T14:29:34;2.70;;;1.70;;
38025;SDS011;23836;48.430;9.888;2022-08-01T14:34:26;4.90;;;2.15;;
38025;SDS011;23836;48.430;9.888;2022-08-01T14:39:21;4.25;;;1.77;;
38025;SDS011;23836;48.430;9.888;2022-08-01T14:44:14;7.60;;;1.98;;
38025;SDS011;23836;48.430;9.888;2022-08-01T14:49:05;5.40;;;2.40;;
38025;SDS011;23836;48.430;9.888;2022-08-01T14:53:55;7.63;;;1.95;;
38025;SDS011;23836;48.430;9.888;2022-08-01T14:58:47;2.88;;;1.98;;
38025;SDS011;23836;48.430;9.888;2022-08-01T15:03:39;2.42;;;1.90;;
38025;SDS011;23836;48.430;9.888;2022-08-01T15:08:31;3.25;;;2.15;;
38025;SDS011;23836;48.430;9.888;2022-08-01T15:13:22;3.35;;;2.15;;
38025;SDS011;23836;48.430;9.888;2022-08-01T15:18:12;8.85;;;2.20;;
38025;SDS011;23836;48.430;9.888;2022-08-01T15:23:03;3.78;;;1.95;;
38025;SDS011;23836;48.430;9.888;2022-08-01T15:27:54;7.10;;;2.00;;
38025;SDS011;23836;48.430;9.888;2022-08-01T15:32:45;3.65;;;1.70;;
38025;SDS011;23836;48.430;9.888;2022-08-01T15:37:38;5.18;;;2.13;;
38025;SDS011;23836;48.430;9.888;2022-08-01T15:42:30;2.85;;;1.80;;
38025;SDS011;23836;48.430;9.888;2022-08-01T15:47:21;10.85;;;1.98;;
38025;SDS011;23836;48.430;9.888;2022-08-01T15:52:12;3.72;;;1.98;;
38025;SDS011;23836;48.430;9.888;2022-08-01T15:57:03;2.17;;;1.73;;
38025;SDS011;23836;48.430;9.888;2022-08-01T16:07:48;5.85;;;1.92;;
38025;SDS011;23836;48.430;9.888;2022-08-01T16:12:40;4.35;;;2.30;;
38025;SDS011;23836;48.430;9.888;2022-08-01T16:17:32;4.00;;;2.30;;
38025;SDS011;23836;48.430;9.888;2022-08-01T16:22:29;7.63;;;2.00;;
38025;SDS011;23836;48.430;9.888;2022-08-01T16:27:21;2.88;;;1.73;;
38025;SDS011;23836;48.430;9.888;2022-08-01T16:32:12;8.07;;;2.15;;
38025;SDS011;23836;48.430;9.888;2022-08-01T16:37:03;6.60;;;2.25;;
38025;SDS011;23836;48.430;9.888;2022-08-01T16:41:56;4.55;;;2.40;;
38025;SDS011;23836;48.430;9.888;2022-08-01T16:46:48;9.95;;;2.80;;
38025;SDS011;23836;48.430;9.888;2022-08-01T16:51:39;6.68;;;3.17;;
38025;SDS011;23836;48.430;9.888;2022-08-01T16:56:33;5.13;;;2.28;;
38025;SDS011;23836;48.430;9.888;2022-08-01T17:01:25;7.10;;;2.90;;
38025;SDS011;23836;48.430;9.888;2022-08-01T17:12:04;8.30;;;2.38;;
38025;SDS011;23836;48.430;9.888;2022-08-01T17:16:54;5.78;;;1.90;;
38025;SDS011;23836;48.430;9.888;2022-08-01T17:21:45;3.80;;;2.07;;
38025;SDS011;23836;48.430;9.888;2022-08-01T17:26:35;2.73;;;1.90;;
38025;SDS011;23836;48.430;9.888;2022-08-01T17:31:25;2.65;;;1.73;;
38025;SDS011;23836;48.430;9.888;2022-08-01T17:36:16;5.70;;;1.97;;
38025;SDS011;23836;48.430;9.888;2022-08-01T17:41:07;5.50;;;2.13;;
38025;SDS011;23836;48.430;9.888;2022-08-01T17:45:58;4.32;;;2.42;;
38025;SDS011;23836;48.430;9.888;2022-08-01T17:50:48;3.83;;;1.87;;
38025;SDS011;23836;48.430;9.888;2022-08-01T17:55:39;2.80;;;1.70;;
38025;SDS011;23836;48.430;9.888;2022-08-01T18:00:30;6.05;;;1.88;;
38025;SDS011;23836;48.430;9.888;2022-08-01T18:05:21;2.95;;;1.83;;
38025;SDS011;23836;48.430;9.888;2022-08-01T18:10:12;3.90;;;2.53;;
38025;SDS011;23836;48.430;9.888;2022-08-01T18:15:02;4.47;;;2.03;;
38025;SDS011;23836;48.430;9.888;2022-08-01T18:19:55;2.60;;;1.83;;
38025;SDS011;23836;48.430;9.888;2022-08-01T18:24:45;2.92;;;2.15;;
38025;SDS011;23836;48.430;9.888;2022-08-01T18:29:35;4.47;;;2.20;;
38025;SDS011;23836;48.430;9.888;2022-08-01T18:34:26;3.30;;;2.05;;
38025;SDS011;23836;48.430;9.888;2022-08-01T18:39:16;4.05;;;2.10;;
38025;SDS011;23836;48.430;9.888;2022-08-01T18:44:07;3.85;;;2.20;;
38025;SDS011;23836;48.430;9.888;2022-08-01T18:48:57;2.67;;;1.85;;
38025;SDS011;23836;48.430;9.888;2022-08-01T18:53:47;3.30;;;2.03;;
38025;SDS011;23836;48.430;9.888;2022-08-01T18:58:38;2.88;;;1.80;;
38025;SDS011;23836;48.430;9.888;2022-08-01T19:03:30;3.97;;;2.05;;
38025;SDS011;23836;48.430;9.888;2022-08-01T19:08:21;5.30;;;2.00;;
38025;SDS011;23836;48.430;9.888;2022-08-01T19:13:11;5.17;;;2.40;;
38025;SDS011;23836;48.430;9.888;2022-08-01T19:18:02;4.25;;;2.42;;
38025;SDS011;23836;48.430;9.888;2022-08-01T19:22:54;4.65;;;2.50;;
38025;SDS011;23836;48.430;9.888;2022-08-01T19:27:47;10.65;;;2.30;;
38025;SDS011;23836;48.430;9.888;2022-08-01T19:32:39;4.38;;;2.30;;
38025;SDS011;23836;48.430;9.888;2022-08-01T19:37:31;7.63;;;2.60;;
38025;SDS011;23836;48.430;9.888;2022-08-01T19:42:25;8.95;;;3.35;;
38025;SDS011;23836;48.430;9.888;2022-08-01T19:47:18;15.77;;;3.90;;
38025;SDS011;23836;48.430;9.888;2022-08-01T19:52:09;7.28;;;3.10;;
38025;SDS011;23836;48.430;9.888;2022-08-01T19:57:00;8.75;;;2.83;;
38025;SDS011;23836;48.430;9.888;2022-08-01T20:01:53;8.82;;;3.00;;
38025;SDS011;23836;48.430;9.888;2022-08-01T20:06:44;4.05;;;2.60;;
38025;SDS011;23836;48.430;9.888;2022-08-01T20:11:36;10.65;;;2.85;;
38025;SDS011;23836;48.430;9.888;2022-08-01T20:16:27;4.10;;;2.40;;
38025;SDS011;23836;48.430;9.888;2022-08-01T20:21:19;8.82;;;2.47;;
38025;SDS011;23836;48.430;9.888;2022-08-01T20:26:13;6.65;;;3.00;;
38025;SDS011;23836;48.430;9.888;2022-08-01T20:31:05;5.45;;;3.05;;
38025;SDS011;23836;48.430;9.888;2022-08-01T20:35:57;5.30;;;3.50;;
38025;SDS011;23836;48.430;9.888;2022-08-01T20:40:48;5.20;;;3.58;;
38025;SDS011;23836;48.430;9.888;2022-08-01T20:45:39;5.93;;;2.85;;
38025;SDS011;23836;48.430;9.888;2022-08-01T20:50:31;6.93;;;3.13;;
38025;SDS011;23836;48.430;9.888;2022-08-01T21:00:34;5.90;;;3.28;;
38025;SDS011;23836;48.430;9.888;2022-08-01T21:05:29;4.57;;;3.40;;
38025;SDS011;23836;48.430;9.888;2022-08-01T21:10:20;6.18;;;2.97;;
38025;SDS011;23836;48.430;9.888;2022-08-01T21:15:24;9.90;;;3.30;;
38025;SDS011;23836;48.430;9.888;2022-08-01T21:20:19;5.57;;;3.60;;
38025;SDS011;23836;48.430;9.888;2022-08-01T21:25:11;6.72;;;2.88;;
38025;SDS011;23836;48.430;9.888;2022-08-01T21:30:07;9.02;;;3.05;;
38025;SDS011;23836;48.430;9.888;2022-08-01T21:34:58;5.57;;;3.22;;
38025;SDS011;23836;48.430;9.888;2022-08-01T21:39:50;5.22;;;2.95;;
38025;SDS011;23836;48.430;9.888;2022-08-01T21:44:41;9.43;;;3.22;;
38025;SDS011;23836;48.430;9.888;2022-08-01T21:49:34;3.20;;;2.70;;
38025;SDS011;23836;48.430;9.888;2022-08-01T21:54:28;7.10;;;2.88;;
38025;SDS011;23836;48.430;9.888;2022-08-01T21:59:24;6.23;;;2.53;;
38025;SDS011;23836;48.430;9.888;2022-08-01T22:04:24;6.57;;;1.90;;
38025;SDS011;23836;48.430;9.888;2022-08-01T22:09:27;2.78;;;1.73;;
38025;SDS011;23836;48.430;9.888;2022-08-01T22:14:20;2.03;;;1.55;;
38025;SDS011;23836;48.430;9.888;2022-08-01T22:19:13;3.25;;;1.67;;
38025;SDS011;23836;48.430;9.888;2022-08-01T22:24:05;2.33;;;1.83;;
38025;SDS011;23836;48.430;9.888;2022-08-01T22:28:56;2.33;;;1.60;;
38025;SDS011;23836;48.430;9.888;2022-08-01T22:33:47;2.35;;;1.58;;
38025;SDS011;23836;48.430;9.888;2022-08-01T22:38:38;1.75;;;1.50;;
38025;SDS011;23836;48.430;9.888;2022-08-01T22:43:34;4.72;;;2.28;;
38025;SDS011;23836;48.430;9.888;2022-08-01T22:58:41;7.97;;;2.33;;
38025;SDS011;23836;48.430;9.888;2022-08-01T23:03:33;5.18;;;2.20;;
38025;SDS011;23836;48.430;9.888;2022-08-01T23:08:26;4.15;;;2.05;;
38025;SDS011;23836;48.430;9.888;2022-08-01T23:13:16;2.72;;;2.08;;
38025;SDS011;23836;48.430;9.888;2022-08-01T23:18:08;4.85;;;2.70;;
38025;SDS011;23836;48.430;9.888;2022-08-01T23:22:59;4.13;;;2.42;;
38025;SDS011;23836;48.430;9.888;2022-08-01T23:27:52;2.60;;;2.05;;
38025;SDS011;23836;48.430;9.888;2022-08-01T23:32:43;3.30;;;2.05;;
38025;SDS011;23836;48.430;9.888;2022-08-01T23:37:33;3.28;;;2.55;;
38025;SDS011;23836;48.430;9.888;2022-08-01T23:42:24;6.15;;;3.33;;
38025;SDS011;23836;48.430;9.888;2022-08-01T23:47:14;6.78;;;2.47;;
38025;SDS011;23836;48.430;9.888;2022-08-01T23:52:05;6.77;;;2.63;;
38025;SDS011;23836;48.430;9.888;2022-08-01T23:56:55;6.03;;;2.42;;
